sensor_id;sensor_type;location;lat;lon;timestamp;P1;durP1;ratioP1;P2;durP2;ratioP2
10463;SDS011;5279;42.048;24.638;2022-12-10T00:01:46;44.10;;;26.33;;
10463;SDS011;5279;42.048;24.638;2022-12-10T00:04:15;46.53;;;24.67;;
10463;SDS011;5279;42.048;24.638;2022-12-10T00:06:47;50.70;;;27.07;;
10463;SDS011;5279;42.048;24.638;2022-12-10T00:09:17;44.97;;;26.10;;
10463;SDS011;5279;42.048;24.638;2022-12-10T00:11:46;45.60;;;24.97;;
10463;SDS011;5279;42.048;24.638;2022-12-10T00:14:15;46.17;;;25.47;;
10463;SDS011;5279;42.048;24.638;2022-12-10T00:16:44;44.30;;;25.83;;
10463;SDS011;5279;42.048;24.638;2022-12-10T00:19:12;39.70;;;24.50;;
10463;SDS011;5279;42.048;24.638;2022-12-10T00:21:41;45.70;;;25.87;;
10463;SDS011;5279;42.048;24.638;2022-12-10T00:24:15;47.80;;;25.80;;
10463;SDS011;5279;42.048;24.638;2022-12-10T00:26:43;53.23;;;27.50;;
10463;SDS011;5279;42.048;24.638;2022-12-10T00:29:13;45.03;;;26.00;;
10463;SDS011;5279;42.048;24.638;2022-12-10T00:31:45;50.77;;;27.33;;
10463;SDS011;5279;42.048;24.638;2022-12-10T00:34:13;47.67;;;28.10;;
10463;SDS011;5279;42.048;24.638;2022-12-10T00:36:44;45.40;;;25.47;;
10463;SDS011;5279;42.048;24.638;2022-12-10T00:39:18;46.47;;;25.83;;
10463;SDS011;5279;42.048;24.638;2022-12-10T00:41:52;48.03;;;26.00;;
10463;SDS011;5279;42.048;24.638;2022-12-10T00:44:20;46.33;;;26.17;;
10463;SDS011;5279;42.048;24.638;2022-12-10T00:46:55;51.60;;;27.43;;
10463;SDS011;5279;42.048;24.638;2022-12-10T00:49:23;44.43;;;25.63;;
10463;SDS011;5279;42.048;24.638;2022-12-10T00:51:50;47.67;;;25.70;;
10463;SDS011;5279;42.048;24.638;2022-12-10T00:54:22;49.20;;;27.10;;
10463;SDS011;5279;42.048;24.638;2022-12-10T00:56:52;44.63;;;25.73;;
10463;SDS011;5279;42.048;24.638;2022-12-10T00:59:21;49.43;;;26.43;;
10463;SDS011;5279;42.048;24.638;2022-12-10T01:01:50;43.47;;;26.43;;
10463;SDS011;5279;42.048;24.638;2022-12-10T01:04:20;50.13;;;27.30;;
10463;SDS011;5279;42.048;24.638;2022-12-10T01:06:49;43.30;;;24.53;;
10463;SDS011;5279;42.048;24.638;2022-12-10T01:09:23;46.27;;;24.73;;
10463;SDS011;5279;42.048;24.638;2022-12-10T01:11:54;50.33;;;25.40;;
10463;SDS011;5279;42.048;24.638;2022-12-10T01:14:24;46.60;;;26.37;;
10463;SDS011;5279;42.048;24.638;2022-12-10T01:16:53;44.33;;;24.90;;
10463;SDS011;5279;42.048;24.638;2022-12-10T01:19:22;45.70;;;27.63;;
10463;SDS011;5279;42.048;24.638;2022-12-10T01:21:53;44.97;;;25.43;;
10463;SDS011;5279;42.048;24.638;2022-12-10T01:24:24;54.23;;;27.77;;
10463;SDS011;5279;42.048;24.638;2022-12-10T01:26:53;47.67;;;24.70;;
10463;SDS011;5279;42.048;24.638;2022-12-10T01:29:23;48.33;;;26.77;;
10463;SDS011;5279;42.048;24.638;2022-12-10T01:31:53;47.37;;;26.87;;
10463;SDS011;5279;42.048;24.638;2022-12-10T01:34:23;52.27;;;27.17;;
10463;SDS011;5279;42.048;24.638;2022-12-10T01:36:53;77.30;;;27.30;;
10463;SDS011;5279;42.048;24.638;2022-12-10T01:39:24;71.33;;;27.23;;
10463;SDS011;5279;42.048;24.638;2022-12-10T01:41:52;51.40;;;26.33;;
10463;SDS011;5279;42.048;24.638;2022-12-10T01:47:25;56.03;;;25.90;;
10463;SDS011;5279;42.048;24.638;2022-12-10T01:49:54;52.03;;;26.37;;
10463;SDS011;5279;42.048;24.638;2022-12-10T01:52:26;44.93;;;26.63;;
10463;SDS011;5279;42.048;24.638;2022-12-10T01:54:57;60.40;;;26.37;;
10463;SDS011;5279;42.048;24.638;2022-12-10T01:57:26;49.83;;;26.30;;
10463;SDS011;5279;42.048;24.638;2022-12-10T01:59:56;58.07;;;29.03;;
10463;SDS011;5279;42.048;24.638;2022-12-10T02:02:30;118.83;;;31.23;;
10463;SDS011;5279;42.048;24.638;2022-12-10T02:05:09;143.47;;;32.00;;
10463;SDS011;5279;42.048;24.638;2022-12-10T02:07:48;236.60;;;35.33;;
10463;SDS011;5279;42.048;24.638;2022-12-10T02:10:37;350.67;;;38.60;;
10463;SDS011;5279;42.048;24.638;2022-12-10T02:13:15;710.60;;;53.50;;
10463;SDS011;5279;42.048;24.638;2022-12-10T02:15:47;120.17;;;29.83;;
10463;SDS011;5279;42.048;24.638;2022-12-10T02:18:20;320.60;;;39.07;;
10463;SDS011;5279;42.048;24.638;2022-12-10T02:20:55;132.87;;;31.33;;
10463;SDS011;5279;42.048;24.638;2022-12-10T02:23:28;718.23;;;54.53;;
10463;SDS011;5279;42.048;24.638;2022-12-10T02:26:02;347.90;;;35.90;;
10463;SDS011;5279;42.048;24.638;2022-12-10T02:28:37;386.07;;;37.63;;
10463;SDS011;5279;42.048;24.638;2022-12-10T02:31:15;565.57;;;47.97;;
10463;SDS011;5279;42.048;24.638;2022-12-10T02:33:49;213.40;;;33.33;;
10463;SDS011;5279;42.048;24.638;2022-12-10T02:36:20;64.13;;;30.03;;
10463;SDS011;5279;42.048;24.638;2022-12-10T02:38:51;78.57;;;29.63;;
10463;SDS011;5279;42.048;24.638;2022-12-10T02:41:20;63.97;;;30.80;;
10463;SDS011;5279;42.048;24.638;2022-12-10T02:43:53;63.90;;;29.90;;
10463;SDS011;5279;42.048;24.638;2022-12-10T02:46:27;65.30;;;28.73;;
10463;SDS011;5279;42.048;24.638;2022-12-10T02:48:59;61.03;;;28.97;;
10463;SDS011;5279;42.048;24.638;2022-12-10T02:51:32;93.50;;;32.03;;
10463;SDS011;5279;42.048;24.638;2022-12-10T02:54:00;60.10;;;29.13;;
10463;SDS011;5279;42.048;24.638;2022-12-10T02:56:32;216.67;;;34.53;;
10463;SDS011;5279;42.048;24.638;2022-12-10T03:01:52;99.17;;;30.67;;
10463;SDS011;5279;42.048;24.638;2022-12-10T03:04:29;65.07;;;30.17;;
10463;SDS011;5279;42.048;24.638;2022-12-10T03:07:04;537.30;;;50.23;;
10463;SDS011;5279;42.048;24.638;2022-12-10T03:09:38;385.97;;;41.50;;
10463;SDS011;5279;42.048;24.638;2022-12-10T03:12:14;386.53;;;40.27;;
10463;SDS011;5279;42.048;24.638;2022-12-10T03:14:48;105.37;;;30.37;;
10463;SDS011;5279;42.048;24.638;2022-12-10T03:17:19;50.70;;;26.73;;
10463;SDS011;5279;42.048;24.638;2022-12-10T03:19:48;59.33;;;28.20;;
10463;SDS011;5279;42.048;24.638;2022-12-10T03:22:17;52.73;;;25.93;;
10463;SDS011;5279;42.048;24.638;2022-12-10T03:24:52;51.57;;;25.60;;
10463;SDS011;5279;42.048;24.638;2022-12-10T03:27:22;170.90;;;29.97;;
10463;SDS011;5279;42.048;24.638;2022-12-10T03:29:53;56.70;;;27.97;;
10463;SDS011;5279;42.048;24.638;2022-12-10T03:32:27;63.47;;;28.50;;
10463;SDS011;5279;42.048;24.638;2022-12-10T03:34:58;55.03;;;27.37;;
10463;SDS011;5279;42.048;24.638;2022-12-10T03:37:29;56.73;;;26.03;;
10463;SDS011;5279;42.048;24.638;2022-12-10T03:39:59;44.93;;;25.30;;
10463;SDS011;5279;42.048;24.638;2022-12-10T03:42:29;42.13;;;25.37;;
10463;SDS011;5279;42.048;24.638;2022-12-10T03:44:59;44.40;;;25.80;;
10463;SDS011;5279;42.048;24.638;2022-12-10T03:47:29;44.40;;;25.30;;
10463;SDS011;5279;42.048;24.638;2022-12-10T03:49:57;43.10;;;25.30;;
10463;SDS011;5279;42.048;24.638;2022-12-10T03:52:26;45.57;;;25.90;;
10463;SDS011;5279;42.048;24.638;2022-12-10T03:54:54;42.07;;;23.90;;
10463;SDS011;5279;42.048;24.638;2022-12-10T03:57:24;52.43;;;24.87;;
10463;SDS011;5279;42.048;24.638;2022-12-10T03:59:54;46.50;;;24.40;;
10463;SDS011;5279;42.048;24.638;2022-12-10T04:02:23;82.43;;;28.33;;
10463;SDS011;5279;42.048;24.638;2022-12-10T04:04:52;43.33;;;25.20;;
10463;SDS011;5279;42.048;24.638;2022-12-10T04:07:28;43.07;;;25.60;;
10463;SDS011;5279;42.048;24.638;2022-12-10T04:09:57;61.27;;;26.33;;
10463;SDS011;5279;42.048;24.638;2022-12-10T04:12:26;41.30;;;25.57;;
10463;SDS011;5279;42.048;24.638;2022-12-10T04:14:55;41.67;;;24.23;;
10463;SDS011;5279;42.048;24.638;2022-12-10T04:17:40;41.43;;;24.30;;
10463;SDS011;5279;42.048;24.638;2022-12-10T04:20:10;42.03;;;24.53;;
10463;SDS011;5279;42.048;24.638;2022-12-10T04:22:51;49.17;;;25.93;;
10463;SDS011;5279;42.048;24.638;2022-12-10T04:25:35;47.97;;;24.10;;
10463;SDS011;5279;42.048;24.638;2022-12-10T04:28:21;53.07;;;24.97;;
10463;SDS011;5279;42.048;24.638;2022-12-10T04:30:50;47.23;;;24.93;;
10463;SDS011;5279;42.048;24.638;2022-12-10T04:33:20;49.03;;;25.43;;
10463;SDS011;5279;42.048;24.638;2022-12-10T04:35:52;48.17;;;25.07;;
10463;SDS011;5279;42.048;24.638;2022-12-10T04:38:20;55.63;;;24.13;;
10463;SDS011;5279;42.048;24.638;2022-12-10T04:40:52;40.20;;;23.27;;
10463;SDS011;5279;42.048;24.638;2022-12-10T04:43:20;47.87;;;24.03;;
10463;SDS011;5279;42.048;24.638;2022-12-10T04:45:50;47.87;;;25.13;;
10463;SDS011;5279;42.048;24.638;2022-12-10T04:48:22;45.53;;;24.80;;
10463;SDS011;5279;42.048;24.638;2022-12-10T04:50:53;40.33;;;23.47;;
10463;SDS011;5279;42.048;24.638;2022-12-10T04:53:22;43.73;;;25.33;;
10463;SDS011;5279;42.048;24.638;2022-12-10T04:55:50;44.00;;;25.37;;
10463;SDS011;5279;42.048;24.638;2022-12-10T04:58:19;45.40;;;24.77;;
10463;SDS011;5279;42.048;24.638;2022-12-10T05:00:48;47.17;;;24.73;;
10463;SDS011;5279;42.048;24.638;2022-12-10T05:03:17;48.97;;;25.63;;
10463;SDS011;5279;42.048;24.638;2022-12-10T05:05:48;45.97;;;24.87;;
10463;SDS011;5279;42.048;24.638;2022-12-10T05:08:20;44.40;;;25.27;;
10463;SDS011;5279;42.048;24.638;2022-12-10T05:10:49;39.47;;;22.70;;
10463;SDS011;5279;42.048;24.638;2022-12-10T05:13:18;46.43;;;25.00;;
10463;SDS011;5279;42.048;24.638;2022-12-10T05:15:46;42.00;;;24.53;;
10463;SDS011;5279;42.048;24.638;2022-12-10T05:18:15;42.77;;;23.30;;
10463;SDS011;5279;42.048;24.638;2022-12-10T05:20:45;41.23;;;23.10;;
10463;SDS011;5279;42.048;24.638;2022-12-10T05:23:14;36.93;;;22.80;;
10463;SDS011;5279;42.048;24.638;2022-12-10T05:26:00;40.27;;;23.10;;
10463;SDS011;5279;42.048;24.638;2022-12-10T05:28:29;35.77;;;22.70;;
10463;SDS011;5279;42.048;24.638;2022-12-10T05:30:58;35.03;;;21.57;;
10463;SDS011;5279;42.048;24.638;2022-12-10T05:33:28;31.73;;;20.60;;
10463;SDS011;5279;42.048;24.638;2022-12-10T05:35:58;36.53;;;23.27;;
10463;SDS011;5279;42.048;24.638;2022-12-10T05:38:29;43.00;;;23.77;;
10463;SDS011;5279;42.048;24.638;2022-12-10T05:41:02;34.83;;;20.70;;
10463;SDS011;5279;42.048;24.638;2022-12-10T05:43:31;37.47;;;22.40;;
10463;SDS011;5279;42.048;24.638;2022-12-10T05:46:01;36.57;;;22.27;;
10463;SDS011;5279;42.048;24.638;2022-12-10T05:48:33;39.50;;;22.43;;
10463;SDS011;5279;42.048;24.638;2022-12-10T05:51:03;44.03;;;23.43;;
10463;SDS011;5279;42.048;24.638;2022-12-10T05:53:33;43.97;;;24.77;;
10463;SDS011;5279;42.048;24.638;2022-12-10T05:56:05;64.33;;;26.77;;
10463;SDS011;5279;42.048;24.638;2022-12-10T05:58:35;42.23;;;25.00;;
10463;SDS011;5279;42.048;24.638;2022-12-10T06:01:05;39.87;;;24.23;;
10463;SDS011;5279;42.048;24.638;2022-12-10T06:03:35;38.47;;;23.37;;
10463;SDS011;5279;42.048;24.638;2022-12-10T06:06:05;40.87;;;24.53;;
10463;SDS011;5279;42.048;24.638;2022-12-10T06:08:34;36.23;;;23.73;;
10463;SDS011;5279;42.048;24.638;2022-12-10T06:11:05;47.07;;;27.77;;
10463;SDS011;5279;42.048;24.638;2022-12-10T06:13:35;45.20;;;25.97;;
10463;SDS011;5279;42.048;24.638;2022-12-10T06:16:05;41.77;;;22.77;;
10463;SDS011;5279;42.048;24.638;2022-12-10T06:18:34;41.17;;;21.53;;
10463;SDS011;5279;42.048;24.638;2022-12-10T06:21:02;36.33;;;22.33;;
10463;SDS011;5279;42.048;24.638;2022-12-10T06:23:33;37.17;;;21.23;;
10463;SDS011;5279;42.048;24.638;2022-12-10T06:26:04;37.00;;;22.33;;
10463;SDS011;5279;42.048;24.638;2022-12-10T06:28:35;44.00;;;22.03;;
10463;SDS011;5279;42.048;24.638;2022-12-10T06:31:05;33.43;;;20.93;;
10463;SDS011;5279;42.048;24.638;2022-12-10T06:33:35;30.63;;;19.20;;
10463;SDS011;5279;42.048;24.638;2022-12-10T06:36:04;30.33;;;19.80;;
10463;SDS011;5279;42.048;24.638;2022-12-10T06:38:33;26.20;;;18.33;;
10463;SDS011;5279;42.048;24.638;2022-12-10T06:41:06;27.43;;;17.83;;
10463;SDS011;5279;42.048;24.638;2022-12-10T06:43:35;27.33;;;18.00;;
10463;SDS011;5279;42.048;24.638;2022-12-10T06:46:06;26.10;;;18.43;;
10463;SDS011;5279;42.048;24.638;2022-12-10T06:48:34;27.50;;;17.60;;
10463;SDS011;5279;42.048;24.638;2022-12-10T06:51:04;25.00;;;18.33;;
10463;SDS011;5279;42.048;24.638;2022-12-10T06:53:34;25.20;;;17.80;;
10463;SDS011;5279;42.048;24.638;2022-12-10T06:56:11;27.03;;;18.47;;
10463;SDS011;5279;42.048;24.638;2022-12-10T06:58:42;28.63;;;17.77;;
10463;SDS011;5279;42.048;24.638;2022-12-10T07:01:09;25.37;;;17.47;;
10463;SDS011;5279;42.048;24.638;2022-12-10T07:03:40;28.63;;;19.47;;
10463;SDS011;5279;42.048;24.638;2022-12-10T07:06:09;44.30;;;29.03;;
10463;SDS011;5279;42.048;24.638;2022-12-10T07:08:38;28.73;;;19.27;;
10463;SDS011;5279;42.048;24.638;2022-12-10T07:11:10;30.73;;;20.77;;
10463;SDS011;5279;42.048;24.638;2022-12-10T07:13:40;31.43;;;21.17;;
10463;SDS011;5279;42.048;24.638;2022-12-10T07:16:13;32.80;;;20.47;;
10463;SDS011;5279;42.048;24.638;2022-12-10T07:18:44;32.23;;;20.37;;
10463;SDS011;5279;42.048;24.638;2022-12-10T07:21:12;29.80;;;19.23;;
10463;SDS011;5279;42.048;24.638;2022-12-10T07:23:41;31.83;;;20.77;;
10463;SDS011;5279;42.048;24.638;2022-12-10T07:26:12;28.80;;;19.70;;
10463;SDS011;5279;42.048;24.638;2022-12-10T07:28:41;26.63;;;18.20;;
10463;SDS011;5279;42.048;24.638;2022-12-10T07:31:11;29.63;;;17.93;;
10463;SDS011;5279;42.048;24.638;2022-12-10T07:33:39;23.93;;;16.40;;
10463;SDS011;5279;42.048;24.638;2022-12-10T07:36:09;24.93;;;15.70;;
10463;SDS011;5279;42.048;24.638;2022-12-10T07:38:40;25.00;;;16.93;;
10463;SDS011;5279;42.048;24.638;2022-12-10T07:41:10;25.43;;;15.57;;
10463;SDS011;5279;42.048;24.638;2022-12-10T07:43:41;25.97;;;16.63;;
10463;SDS011;5279;42.048;24.638;2022-12-10T07:46:11;25.43;;;16.40;;
10463;SDS011;5279;42.048;24.638;2022-12-10T07:48:41;26.23;;;16.73;;
10463;SDS011;5279;42.048;24.638;2022-12-10T07:51:12;20.97;;;14.83;;
10463;SDS011;5279;42.048;24.638;2022-12-10T07:53:51;21.47;;;15.17;;
10463;SDS011;5279;42.048;24.638;2022-12-10T07:56:22;37.07;;;20.87;;
10463;SDS011;5279;42.048;24.638;2022-12-10T07:58:51;22.17;;;15.33;;
10463;SDS011;5279;42.048;24.638;2022-12-10T08:01:21;21.47;;;14.77;;
10463;SDS011;5279;42.048;24.638;2022-12-10T08:03:51;22.47;;;14.47;;
10463;SDS011;5279;42.048;24.638;2022-12-10T08:06:22;18.87;;;14.00;;
10463;SDS011;5279;42.048;24.638;2022-12-10T08:08:53;21.77;;;14.03;;
10463;SDS011;5279;42.048;24.638;2022-12-10T08:11:23;18.43;;;13.40;;
10463;SDS011;5279;42.048;24.638;2022-12-10T08:13:52;21.00;;;13.37;;
10463;SDS011;5279;42.048;24.638;2022-12-10T08:16:23;16.23;;;12.63;;
10463;SDS011;5279;42.048;24.638;2022-12-10T08:18:52;18.63;;;13.90;;
10463;SDS011;5279;42.048;24.638;2022-12-10T08:21:21;17.20;;;13.23;;
10463;SDS011;5279;42.048;24.638;2022-12-10T08:23:53;19.40;;;13.37;;
10463;SDS011;5279;42.048;24.638;2022-12-10T08:26:23;14.37;;;11.47;;
10463;SDS011;5279;42.048;24.638;2022-12-10T08:28:54;17.47;;;11.43;;
10463;SDS011;5279;42.048;24.638;2022-12-10T08:31:27;17.07;;;12.20;;
10463;SDS011;5279;42.048;24.638;2022-12-10T08:33:58;18.33;;;13.33;;
10463;SDS011;5279;42.048;24.638;2022-12-10T08:36:27;15.73;;;12.30;;
10463;SDS011;5279;42.048;24.638;2022-12-10T08:38:56;18.07;;;12.30;;
10463;SDS011;5279;42.048;24.638;2022-12-10T08:41:26;18.93;;;13.13;;
10463;SDS011;5279;42.048;24.638;2022-12-10T08:43:54;20.83;;;13.10;;
10463;SDS011;5279;42.048;24.638;2022-12-10T08:46:22;15.27;;;11.53;;
10463;SDS011;5279;42.048;24.638;2022-12-10T08:48:51;16.53;;;11.37;;
10463;SDS011;5279;42.048;24.638;2022-12-10T08:51:20;16.13;;;12.53;;
10463;SDS011;5279;42.048;24.638;2022-12-10T08:53:51;24.30;;;14.70;;
10463;SDS011;5279;42.048;24.638;2022-12-10T08:56:25;14.97;;;10.83;;
10463;SDS011;5279;42.048;24.638;2022-12-10T08:58:55;12.20;;;9.67;;
10463;SDS011;5279;42.048;24.638;2022-12-10T09:01:23;11.97;;;9.97;;
10463;SDS011;5279;42.048;24.638;2022-12-10T09:03:52;12.57;;;10.67;;
10463;SDS011;5279;42.048;24.638;2022-12-10T09:06:21;14.70;;;10.83;;
10463;SDS011;5279;42.048;24.638;2022-12-10T09:08:51;15.13;;;10.57;;
10463;SDS011;5279;42.048;24.638;2022-12-10T09:11:22;13.30;;;10.67;;
10463;SDS011;5279;42.048;24.638;2022-12-10T09:13:53;18.00;;;10.80;;
10463;SDS011;5279;42.048;24.638;2022-12-10T09:16:27;12.53;;;10.27;;
10463;SDS011;5279;42.048;24.638;2022-12-10T09:18:55;24.83;;;13.87;;
10463;SDS011;5279;42.048;24.638;2022-12-10T09:21:27;21.27;;;15.03;;
10463;SDS011;5279;42.048;24.638;2022-12-10T09:23:56;21.17;;;15.60;;
10463;SDS011;5279;42.048;24.638;2022-12-10T09:26:26;21.17;;;15.77;;
10463;SDS011;5279;42.048;24.638;2022-12-10T09:28:57;18.60;;;15.63;;
10463;SDS011;5279;42.048;24.638;2022-12-10T09:31:25;20.83;;;13.23;;
10463;SDS011;5279;42.048;24.638;2022-12-10T09:33:53;19.93;;;13.77;;
10463;SDS011;5279;42.048;24.638;2022-12-10T09:36:23;14.37;;;12.13;;
10463;SDS011;5279;42.048;24.638;2022-12-10T09:38:52;14.80;;;12.00;;
10463;SDS011;5279;42.048;24.638;2022-12-10T09:41:27;15.47;;;12.53;;
10463;SDS011;5279;42.048;24.638;2022-12-10T09:44:07;15.63;;;13.03;;
10463;SDS011;5279;42.048;24.638;2022-12-10T09:46:46;15.03;;;12.93;;
10463;SDS011;5279;42.048;24.638;2022-12-10T09:49:21;20.30;;;15.03;;
10463;SDS011;5279;42.048;24.638;2022-12-10T09:52:02;24.17;;;16.57;;
10463;SDS011;5279;42.048;24.638;2022-12-10T09:54:32;19.63;;;15.13;;
10463;SDS011;5279;42.048;24.638;2022-12-10T09:57:03;19.63;;;13.60;;
10463;SDS011;5279;42.048;24.638;2022-12-10T09:59:37;17.83;;;15.13;;
10463;SDS011;5279;42.048;24.638;2022-12-10T10:02:18;17.50;;;13.40;;
10463;SDS011;5279;42.048;24.638;2022-12-10T10:04:50;17.20;;;14.37;;
10463;SDS011;5279;42.048;24.638;2022-12-10T10:07:23;17.27;;;13.70;;
10463;SDS011;5279;42.048;24.638;2022-12-10T10:09:55;16.90;;;14.33;;
10463;SDS011;5279;42.048;24.638;2022-12-10T10:12:26;18.67;;;14.33;;
10463;SDS011;5279;42.048;24.638;2022-12-10T10:14:56;22.20;;;15.07;;
10463;SDS011;5279;42.048;24.638;2022-12-10T10:17:27;18.30;;;14.00;;
10463;SDS011;5279;42.048;24.638;2022-12-10T10:20:02;19.30;;;14.47;;
10463;SDS011;5279;42.048;24.638;2022-12-10T10:22:30;16.43;;;14.03;;
10463;SDS011;5279;42.048;24.638;2022-12-10T10:24:59;19.17;;;15.50;;
10463;SDS011;5279;42.048;24.638;2022-12-10T10:27:28;18.57;;;15.17;;
10463;SDS011;5279;42.048;24.638;2022-12-10T10:30:00;20.37;;;16.00;;
10463;SDS011;5279;42.048;24.638;2022-12-10T10:32:44;19.63;;;16.20;;
10463;SDS011;5279;42.048;24.638;2022-12-10T10:35:27;20.70;;;16.67;;
10463;SDS011;5279;42.048;24.638;2022-12-10T10:38:00;15.03;;;13.30;;
10463;SDS011;5279;42.048;24.638;2022-12-10T10:40:39;16.93;;;13.50;;
10463;SDS011;5279;42.048;24.638;2022-12-10T10:43:12;15.20;;;12.70;;
10463;SDS011;5279;42.048;24.638;2022-12-10T10:45:50;15.37;;;11.87;;
10463;SDS011;5279;42.048;24.638;2022-12-10T10:48:22;14.67;;;11.77;;
10463;SDS011;5279;42.048;24.638;2022-12-10T10:50:52;16.07;;;11.10;;
10463;SDS011;5279;42.048;24.638;2022-12-10T10:53:24;12.33;;;10.60;;
10463;SDS011;5279;42.048;24.638;2022-12-10T10:55:59;14.93;;;11.30;;
10463;SDS011;5279;42.048;24.638;2022-12-10T10:58:34;14.90;;;10.60;;
10463;SDS011;5279;42.048;24.638;2022-12-10T11:01:16;12.13;;;10.47;;
10463;SDS011;5279;42.048;24.638;2022-12-10T11:03:45;13.40;;;11.10;;
10463;SDS011;5279;42.048;24.638;2022-12-10T11:06:17;13.57;;;11.57;;
10463;SDS011;5279;42.048;24.638;2022-12-10T11:08:47;12.47;;;11.03;;
10463;SDS011;5279;42.048;24.638;2022-12-10T11:11:18;12.20;;;10.70;;
10463;SDS011;5279;42.048;24.638;2022-12-10T11:13:51;12.60;;;10.97;;
10463;SDS011;5279;42.048;24.638;2022-12-10T11:16:23;15.10;;;11.70;;
10463;SDS011;5279;42.048;24.638;2022-12-10T11:18:52;16.43;;;12.07;;
10463;SDS011;5279;42.048;24.638;2022-12-10T11:21:27;16.23;;;11.70;;
10463;SDS011;5279;42.048;24.638;2022-12-10T11:23:57;16.63;;;11.30;;
10463;SDS011;5279;42.048;24.638;2022-12-10T11:26:31;18.37;;;12.87;;
10463;SDS011;5279;42.048;24.638;2022-12-10T11:29:14;17.83;;;12.37;;
10463;SDS011;5279;42.048;24.638;2022-12-10T11:32:02;21.90;;;14.13;;
10463;SDS011;5279;42.048;24.638;2022-12-10T11:34:41;18.20;;;15.70;;
10463;SDS011;5279;42.048;24.638;2022-12-10T11:37:22;18.33;;;14.07;;
10463;SDS011;5279;42.048;24.638;2022-12-10T11:40:01;20.17;;;14.77;;
10463;SDS011;5279;42.048;24.638;2022-12-10T11:42:40;21.37;;;13.77;;
10463;SDS011;5279;42.048;24.638;2022-12-10T11:45:15;18.20;;;12.87;;
10463;SDS011;5279;42.048;24.638;2022-12-10T11:47:56;17.87;;;12.60;;
10463;SDS011;5279;42.048;24.638;2022-12-10T11:50:37;19.17;;;12.80;;
10463;SDS011;5279;42.048;24.638;2022-12-10T11:53:26;18.10;;;12.30;;
10463;SDS011;5279;42.048;24.638;2022-12-10T11:56:13;17.70;;;13.43;;
10463;SDS011;5279;42.048;24.638;2022-12-10T11:58:49;18.13;;;13.00;;
10463;SDS011;5279;42.048;24.638;2022-12-10T12:01:30;20.13;;;13.33;;
10463;SDS011;5279;42.048;24.638;2022-12-10T12:04:28;21.50;;;13.33;;
10463;SDS011;5279;42.048;24.638;2022-12-10T12:07:11;16.03;;;13.30;;
10463;SDS011;5279;42.048;24.638;2022-12-10T12:10:07;16.23;;;13.10;;
10463;SDS011;5279;42.048;24.638;2022-12-10T12:12:55;16.27;;;12.57;;
10463;SDS011;5279;42.048;24.638;2022-12-10T12:15:28;21.50;;;13.50;;
10463;SDS011;5279;42.048;24.638;2022-12-10T12:18:02;16.53;;;12.73;;
10463;SDS011;5279;42.048;24.638;2022-12-10T12:20:37;17.93;;;13.57;;
10463;SDS011;5279;42.048;24.638;2022-12-10T12:23:11;20.03;;;13.13;;
10463;SDS011;5279;42.048;24.638;2022-12-10T12:25:44;18.80;;;12.53;;
10463;SDS011;5279;42.048;24.638;2022-12-10T12:28:15;19.10;;;13.37;;
10463;SDS011;5279;42.048;24.638;2022-12-10T12:30:51;18.93;;;13.90;;
10463;SDS011;5279;42.048;24.638;2022-12-10T12:33:27;20.03;;;13.43;;
10463;SDS011;5279;42.048;24.638;2022-12-10T12:36:02;16.83;;;12.80;;
10463;SDS011;5279;42.048;24.638;2022-12-10T12:38:39;18.83;;;14.23;;
10463;SDS011;5279;42.048;24.638;2022-12-10T12:41:15;16.27;;;12.87;;
10463;SDS011;5279;42.048;24.638;2022-12-10T12:43:51;19.77;;;13.17;;
10463;SDS011;5279;42.048;24.638;2022-12-10T12:46:26;20.47;;;12.77;;
10463;SDS011;5279;42.048;24.638;2022-12-10T12:49:01;15.60;;;12.10;;
10463;SDS011;5279;42.048;24.638;2022-12-10T12:51:40;15.30;;;12.37;;
10463;SDS011;5279;42.048;24.638;2022-12-10T12:54:12;16.60;;;12.07;;
10463;SDS011;5279;42.048;24.638;2022-12-10T12:59:36;17.07;;;11.43;;
10463;SDS011;5279;42.048;24.638;2022-12-10T13:02:18;14.03;;;10.13;;
10463;SDS011;5279;42.048;24.638;2022-12-10T13:04:53;16.40;;;9.73;;
10463;SDS011;5279;42.048;24.638;2022-12-10T13:07:30;13.30;;;8.93;;
10463;SDS011;5279;42.048;24.638;2022-12-10T13:10:18;13.13;;;9.73;;
10463;SDS011;5279;42.048;24.638;2022-12-10T13:13:15;11.60;;;9.50;;
10463;SDS011;5279;42.048;24.638;2022-12-10T13:15:49;13.07;;;9.83;;
10463;SDS011;5279;42.048;24.638;2022-12-10T13:18:21;15.40;;;10.43;;
10463;SDS011;5279;42.048;24.638;2022-12-10T13:21:25;12.20;;;8.97;;
10463;SDS011;5279;42.048;24.638;2022-12-10T13:24:11;14.53;;;9.17;;
10463;SDS011;5279;42.048;24.638;2022-12-10T13:26:41;13.83;;;10.40;;
10463;SDS011;5279;42.048;24.638;2022-12-10T13:29:25;14.47;;;9.43;;
10463;SDS011;5279;42.048;24.638;2022-12-10T13:31:57;12.47;;;10.63;;
10463;SDS011;5279;42.048;24.638;2022-12-10T13:34:32;17.00;;;11.00;;
10463;SDS011;5279;42.048;24.638;2022-12-10T13:37:06;14.67;;;11.50;;
10463;SDS011;5279;42.048;24.638;2022-12-10T13:39:54;16.63;;;11.70;;
10463;SDS011;5279;42.048;24.638;2022-12-10T13:42:42;16.83;;;11.73;;
10463;SDS011;5279;42.048;24.638;2022-12-10T13:45:33;16.27;;;11.43;;
10463;SDS011;5279;42.048;24.638;2022-12-10T13:48:16;14.40;;;11.07;;
10463;SDS011;5279;42.048;24.638;2022-12-10T13:51:11;22.50;;;15.33;;
10463;SDS011;5279;42.048;24.638;2022-12-10T13:53:54;25.33;;;15.73;;
10463;SDS011;5279;42.048;24.638;2022-12-10T13:56:38;21.73;;;15.37;;
10463;SDS011;5279;42.048;24.638;2022-12-10T13:59:13;22.87;;;15.40;;
10463;SDS011;5279;42.048;24.638;2022-12-10T14:01:51;26.00;;;14.90;;
10463;SDS011;5279;42.048;24.638;2022-12-10T14:04:35;22.67;;;15.27;;
10463;SDS011;5279;42.048;24.638;2022-12-10T14:07:16;23.60;;;16.10;;
10463;SDS011;5279;42.048;24.638;2022-12-10T14:09:45;25.07;;;16.73;;
10463;SDS011;5279;42.048;24.638;2022-12-10T14:12:20;25.00;;;16.33;;
10463;SDS011;5279;42.048;24.638;2022-12-10T14:14:55;23.97;;;16.60;;
10463;SDS011;5279;42.048;24.638;2022-12-10T14:17:30;29.53;;;19.43;;
10463;SDS011;5279;42.048;24.638;2022-12-10T14:20:02;31.70;;;21.37;;
10463;SDS011;5279;42.048;24.638;2022-12-10T14:22:37;30.47;;;21.67;;
10463;SDS011;5279;42.048;24.638;2022-12-10T14:25:12;31.57;;;21.77;;
10463;SDS011;5279;42.048;24.638;2022-12-10T14:27:45;31.43;;;21.23;;
10463;SDS011;5279;42.048;24.638;2022-12-10T14:30:15;31.53;;;21.23;;
10463;SDS011;5279;42.048;24.638;2022-12-10T14:32:45;30.13;;;19.03;;
10463;SDS011;5279;42.048;24.638;2022-12-10T14:35:16;28.80;;;19.80;;
10463;SDS011;5279;42.048;24.638;2022-12-10T14:37:46;27.03;;;19.60;;
10463;SDS011;5279;42.048;24.638;2022-12-10T14:40:24;28.23;;;18.93;;
10463;SDS011;5279;42.048;24.638;2022-12-10T14:42:57;27.97;;;18.00;;
10463;SDS011;5279;42.048;24.638;2022-12-10T14:45:33;28.57;;;16.73;;
10463;SDS011;5279;42.048;24.638;2022-12-10T14:48:09;21.33;;;13.60;;
10463;SDS011;5279;42.048;24.638;2022-12-10T14:50:39;21.33;;;13.70;;
10463;SDS011;5279;42.048;24.638;2022-12-10T14:53:11;16.47;;;12.23;;
10463;SDS011;5279;42.048;24.638;2022-12-10T14:55:42;12.20;;;9.33;;
10463;SDS011;5279;42.048;24.638;2022-12-10T14:58:15;15.20;;;9.87;;
10463;SDS011;5279;42.048;24.638;2022-12-10T15:00:47;12.03;;;9.27;;
10463;SDS011;5279;42.048;24.638;2022-12-10T15:03:19;10.00;;;8.00;;